createdAt,value
2022-10-07T00:00:43.293Z,2.58
2022-10-07T00:03:10.714Z,2.13
2022-10-07T00:05:37.550Z,2.10
2022-10-07T00:08:05.070Z,2.15
2022-10-07T00:10:31.909Z,1.95
2022-10-07T00:13:01.419Z,2.40
2022-10-07T00:15:28.104Z,2.85
2022-10-07T00:17:54.804Z,2.17
2022-10-07T00:20:21.579Z,2.42
2022-10-07T00:22:48.241Z,2.22
2022-10-07T00:25:15.013Z,2.22
2022-10-07T00:27:41.831Z,2.53
2022-10-07T00:30:09.452Z,2.65
2022-10-07T00:32:36.100Z,3.03
2022-10-07T00:35:02.792Z,2.53
2022-10-07T00:37:29.397Z,2.35
2022-10-07T00:39:57.077Z,2.30
2022-10-07T00:42:23.803Z,2.15
2022-10-07T00:44:50.323Z,2.42
2022-10-07T00:47:29.794Z,3.10
2022-10-07T00:50:17.445Z,2.47
2022-10-07T00:52:47.699Z,2.25
2022-10-07T00:55:19.862Z,2.83
2022-10-07T00:57:48.663Z,3.20
2022-10-07T01:00:15.553Z,2.45
2022-10-07T01:02:42.340Z,2.80
2022-10-07T01:05:10.154Z,2.72
2022-10-07T01:07:38.232Z,3.03
2022-10-07T01:10:06.533Z,2.65
2022-10-07T01:13:01.138Z,3.00
2022-10-07T01:15:39.726Z,2.75
2022-10-07T01:18:26.928Z,2.85
2022-10-07T01:21:04.886Z,2.53
2022-10-07T01:24:08.911Z,2.90
2022-10-07T01:27:01.863Z,2.72
2022-10-07T01:29:38.093Z,2.35
2022-10-07T01:32:21.894Z,2.60
2022-10-07T01:34:52.684Z,3.25
2022-10-07T01:37:22.882Z,3.00
2022-10-07T01:39:57.097Z,2.85
2022-10-07T01:42:26.296Z,3.20
2022-10-07T01:44:56.725Z,3.20
2022-10-07T01:47:24.996Z,3.08
2022-10-07T01:49:51.681Z,2.90
2022-10-07T01:52:30.008Z,3.10
2022-10-07T01:55:11.244Z,3.10
2022-10-07T01:57:47.401Z,2.88
2022-10-07T02:00:15.736Z,3.05
2022-10-07T02:03:00.664Z,2.95
2022-10-07T02:05:46.786Z,2.38
2022-10-07T02:08:33.858Z,2.67
2022-10-07T02:11:03.250Z,2.47
2022-10-07T02:13:43.210Z,3.05
2022-10-07T02:16:10.409Z,2.95
2022-10-07T02:18:41.637Z,3.00
2022-10-07T02:21:10.485Z,3.17
2022-10-07T02:23:40.577Z,2.38
2022-10-07T02:26:11.307Z,2.50
2022-10-07T02:28:41.940Z,2.83
2022-10-07T02:31:11.176Z,2.90
2022-10-07T02:33:41.021Z,2.88
2022-10-07T02:36:18.257Z,2.95
2022-10-07T02:38:45.245Z,2.95
2022-10-07T02:41:31.468Z,2.92
2022-10-07T02:44:20.654Z,2.80
2022-10-07T02:47:11.541Z,2.60
2022-10-07T02:49:42.021Z,3.00
2022-10-07T02:52:13.705Z,2.83
2022-10-07T02:55:17.290Z,3.00
2022-10-07T02:57:50.327Z,2.85
2022-10-07T03:02:49.719Z,2.80
2022-10-07T03:05:21.456Z,2.53
2022-10-07T03:07:52.642Z,2.88
2022-10-07T03:10:19.295Z,2.42
2022-10-07T03:12:45.850Z,2.95
2022-10-07T03:15:12.956Z,2.95
2022-10-07T03:17:40.551Z,2.70
2022-10-07T03:20:08.782Z,3.38
2022-10-07T03:22:35.482Z,2.85
2022-10-07T03:25:02.092Z,2.53
2022-10-07T03:27:29.231Z,3.03
2022-10-07T03:29:58.494Z,2.75
2022-10-07T03:32:27.285Z,2.40
2022-10-07T03:34:54.880Z,2.38
2022-10-07T03:37:24.322Z,2.47
2022-10-07T03:39:52.734Z,2.72
2022-10-07T03:42:21.037Z,2.97
2022-10-07T03:44:49.571Z,2.35
2022-10-07T03:47:17.595Z,2.13
2022-10-07T03:49:44.922Z,2.30
2022-10-07T03:52:11.577Z,2.83
2022-10-07T03:54:38.147Z,2.83
2022-10-07T03:57:24.648Z,3.15
2022-10-07T03:59:53.726Z,2.67
2022-10-07T04:02:23.569Z,2.60
2022-10-07T04:04:53.314Z,3.45
2022-10-07T04:07:22.187Z,2.65
2022-10-07T04:09:48.972Z,2.97
2022-10-07T04:12:15.852Z,2.72
2022-10-07T04:14:42.358Z,2.90
2022-10-07T04:17:08.915Z,3.35
2022-10-07T04:19:35.578Z,2.97
2022-10-07T04:22:08.291Z,2.95
2022-10-07T04:24:35.404Z,2.80
2022-10-07T04:27:05.071Z,2.67
2022-10-07T04:29:35.426Z,2.75
2022-10-07T04:32:05.793Z,3.17
2022-10-07T04:34:32.337Z,2.25
2022-10-07T04:37:01.341Z,3.20
2022-10-07T04:39:49.043Z,2.85
2022-10-07T04:42:34.727Z,3.00
2022-10-07T04:45:01.279Z,2.95
2022-10-07T04:47:27.823Z,3.53
2022-10-07T04:49:55.129Z,3.60
2022-10-07T04:52:21.684Z,3.13
2022-10-07T04:54:48.243Z,2.80
2022-10-07T04:57:14.814Z,3.15
2022-10-07T04:59:43.001Z,4.20
2022-10-07T05:02:10.174Z,3.42
2022-10-07T05:04:37.146Z,3.03
2022-10-07T05:07:04.568Z,3.08
2022-10-07T05:09:31.116Z,3.38
2022-10-07T05:11:57.623Z,3.20
2022-10-07T05:14:24.226Z,3.20
2022-10-07T05:16:51.497Z,2.97
2022-10-07T05:19:18.161Z,2.60
2022-10-07T05:21:44.712Z,3.28
2022-10-07T05:24:11.420Z,3.38
2022-10-07T05:26:37.958Z,2.90
2022-10-07T05:29:04.548Z,3.40
2022-10-07T05:31:31.158Z,3.10
2022-10-07T05:33:57.789Z,2.97
2022-10-07T05:36:24.364Z,3.05
2022-10-07T05:38:53.759Z,3.40
2022-10-07T05:41:21.763Z,3.08
2022-10-07T05:43:48.325Z,3.47
2022-10-07T05:46:17.041Z,2.80
2022-10-07T05:48:48.937Z,3.33
2022-10-07T05:51:15.553Z,3.15
2022-10-07T05:53:43.059Z,3.00
2022-10-07T05:56:12.645Z,2.92
2022-10-07T05:58:39.298Z,3.35
2022-10-07T06:01:12.946Z,3.00
2022-10-07T06:03:40.919Z,3.30
2022-10-07T06:06:08.981Z,3.10
2022-10-07T06:08:36.203Z,2.97
2022-10-07T06:11:33.071Z,3.35
2022-10-07T06:14:00.246Z,3.58
2022-10-07T06:16:27.354Z,3.25
2022-10-07T06:18:54.848Z,3.97
2022-10-07T06:21:28.184Z,3.20
2022-10-07T06:23:56.169Z,2.80
2022-10-07T06:26:23.056Z,3.55
2022-10-07T06:28:49.726Z,3.20
2022-10-07T06:31:26.128Z,3.00
2022-10-07T06:33:52.724Z,3.30
2022-10-07T06:36:19.647Z,3.45
2022-10-07T06:38:52.299Z,3.10
2022-10-07T06:41:19.445Z,3.20
2022-10-07T06:43:46.080Z,3.28
2022-10-07T06:46:20.194Z,2.88
2022-10-07T06:48:47.041Z,3.40
2022-10-07T06:51:19.434Z,3.28
2022-10-07T06:53:50.348Z,2.92
2022-10-07T06:56:16.977Z,2.88
2022-10-07T06:58:43.584Z,3.38
2022-10-07T07:01:11.112Z,3.30
2022-10-07T07:03:37.718Z,3.20
2022-10-07T07:06:05.096Z,3.05
2022-10-07T07:08:32.328Z,2.83
2022-10-07T07:11:27.953Z,2.95
2022-10-07T07:13:54.840Z,2.70
2022-10-07T07:16:22.346Z,3.85
2022-10-07T07:18:56.902Z,3.05
2022-10-07T07:21:24.817Z,2.90
2022-10-07T07:23:51.775Z,2.97
2022-10-07T07:26:18.850Z,3.70
2022-10-07T07:29:01.291Z,2.85
2022-10-07T07:31:30.149Z,3.50
2022-10-07T07:34:00.827Z,2.88
2022-10-07T07:36:29.420Z,3.50
2022-10-07T07:39:01.229Z,3.53
2022-10-07T07:41:30.660Z,3.42
2022-10-07T07:43:59.052Z,3.30
2022-10-07T07:46:29.818Z,3.17
2022-10-07T07:48:56.456Z,3.25
2022-10-07T07:51:22.999Z,3.03
2022-10-07T07:53:50.317Z,3.17
2022-10-07T07:56:18.111Z,3.83
2022-10-07T07:58:44.809Z,3.00
2022-10-07T08:01:14.200Z,3.20
2022-10-07T08:03:43.294Z,3.20
2022-10-07T08:06:12.138Z,3.60
2022-10-07T08:08:40.114Z,3.58
2022-10-07T08:11:08.461Z,3.72
2022-10-07T08:13:36.486Z,3.50
2022-10-07T08:16:06.963Z,3.17
2022-10-07T08:18:34.037Z,3.13
2022-10-07T08:21:03.818Z,2.95
2022-10-07T08:23:30.500Z,3.00
2022-10-07T08:25:58.255Z,3.00
2022-10-07T08:28:26.300Z,3.17
2022-10-07T08:31:01.941Z,2.75
2022-10-07T08:33:36.148Z,3.30
2022-10-07T08:36:04.937Z,3.20
2022-10-07T08:38:37.754Z,3.17
2022-10-07T08:41:24.549Z,3.30
2022-10-07T08:43:52.054Z,3.28
2022-10-07T08:46:26.692Z,3.03
2022-10-07T08:48:58.339Z,2.92
2022-10-07T08:51:43.396Z,3.28
2022-10-07T08:54:14.583Z,3.35
2022-10-07T08:56:43.293Z,3.63
2022-10-07T08:59:32.046Z,3.03
2022-10-07T09:02:24.046Z,3.28
2022-10-07T09:04:55.640Z,3.25
2022-10-07T09:07:45.613Z,2.97
2022-10-07T09:10:23.771Z,2.90
2022-10-07T09:13:07.168Z,2.90
2022-10-07T09:15:52.614Z,2.80
2022-10-07T09:18:35.253Z,3.22
2022-10-07T09:21:05.899Z,2.95
2022-10-07T09:23:35.028Z,2.85
2022-10-07T09:26:01.595Z,2.83
2022-10-07T09:28:33.322Z,3.13
2022-10-07T09:31:00.914Z,2.80
2022-10-07T09:33:29.883Z,2.72
2022-10-07T09:36:05.897Z,2.70
2022-10-07T09:38:44.581Z,2.80
2022-10-07T09:41:24.274Z,2.63
2022-10-07T09:43:59.038Z,2.63
2022-10-07T09:46:42.876Z,2.80
2022-10-07T09:49:31.709Z,3.03
2022-10-07T09:52:03.874Z,2.80
2022-10-07T09:54:33.289Z,2.30
2022-10-07T09:57:03.063Z,2.22
2022-10-07T09:59:33.874Z,2.22
2022-10-07T10:02:25.336Z,2.88
2022-10-07T10:04:57.397Z,3.30
2022-10-07T10:07:47.121Z,2.78
2022-10-07T10:10:21.635Z,2.90
2022-10-07T10:12:51.816Z,2.78
2022-10-07T10:15:41.758Z,2.40
2022-10-07T10:18:41.685Z,2.38
2022-10-07T10:21:20.932Z,2.53
2022-10-07T10:23:53.276Z,2.63
2022-10-07T10:26:37.695Z,2.85
2022-10-07T10:29:07.420Z,2.60
2022-10-07T10:31:41.307Z,3.45
2022-10-07T10:34:35.305Z,2.95
2022-10-07T10:37:14.583Z,2.88
2022-10-07T10:39:52.935Z,2.97
2022-10-07T10:42:28.730Z,2.95
2022-10-07T10:45:08.174Z,2.40
2022-10-07T10:47:48.010Z,2.80
2022-10-07T10:50:32.450Z,2.30
2022-10-07T10:53:24.261Z,2.70
2022-10-07T10:56:05.996Z,2.30
2022-10-07T10:58:44.216Z,2.22
2022-10-07T11:01:30.531Z,3.20
2022-10-07T11:04:18.584Z,2.83
2022-10-07T11:06:51.137Z,2.70
2022-10-07T11:09:33.074Z,3.00
2022-10-07T11:12:04.868Z,2.20
2022-10-07T11:14:36.195Z,2.97
2022-10-07T11:17:06.810Z,2.58
2022-10-07T11:19:39.593Z,2.58
2022-10-07T11:24:50.785Z,2.17
2022-10-07T11:27:29.435Z,3.38
2022-10-07T11:30:23.190Z,2.42
2022-10-07T11:32:55.938Z,2.90
2022-10-07T11:37:58.708Z,2.38
2022-10-07T11:40:30.101Z,3.13
2022-10-07T11:43:05.179Z,2.17
2022-10-07T11:45:40.661Z,2.78
2022-10-07T11:48:23.233Z,3.10
2022-10-07T11:50:57.088Z,2.22
2022-10-07T11:53:28.553Z,2.22
2022-10-07T11:56:14.827Z,2.40
2022-10-07T11:58:41.419Z,2.03
2022-10-07T12:01:25.969Z,2.03
2022-10-07T12:03:54.450Z,1.95
2022-10-07T12:06:21.039Z,2.13
2022-10-07T12:08:47.619Z,2.42
2022-10-07T12:11:15.191Z,2.10
2022-10-07T12:13:50.853Z,1.85
2022-10-07T12:16:23.470Z,1.92
2022-10-07T12:19:08.218Z,1.38
2022-10-07T12:21:59.648Z,2.15
2022-10-07T12:24:28.126Z,2.05
2022-10-07T12:27:06.879Z,1.52
2022-10-07T12:30:02.361Z,1.55
2022-10-07T12:33:00.778Z,1.80
2022-10-07T12:35:30.152Z,1.70
2022-10-07T12:38:10.179Z,2.15
2022-10-07T12:40:37.852Z,1.77
2022-10-07T12:43:22.165Z,1.50
2022-10-07T12:45:48.770Z,1.65
2022-10-07T12:48:21.019Z,1.83
2022-10-07T12:50:50.355Z,1.50
2022-10-07T12:53:19.229Z,1.48
2022-10-07T12:55:52.129Z,1.40
2022-10-07T12:58:59.516Z,1.75
2022-10-07T13:01:46.711Z,1.73
2022-10-07T13:04:50.547Z,1.80
2022-10-07T13:07:35.928Z,1.75
2022-10-07T13:10:34.893Z,1.60
2022-10-07T13:13:22.925Z,1.45
2022-10-07T13:15:58.190Z,1.55
2022-10-07T13:19:04.594Z,1.55
2022-10-07T13:21:39.655Z,2.10
2022-10-07T13:24:13.834Z,1.58
2022-10-07T13:26:44.333Z,1.90
2022-10-07T13:29:24.064Z,1.70
2022-10-07T13:32:13.305Z,1.48
2022-10-07T13:34:40.547Z,1.83
2022-10-07T13:37:29.760Z,1.70
2022-10-07T13:39:58.311Z,1.98
2022-10-07T13:42:29.460Z,1.70
2022-10-07T13:45:03.030Z,1.83
2022-10-07T13:47:33.994Z,1.92
2022-10-07T13:50:02.741Z,1.50
2022-10-07T13:52:35.733Z,1.65
2022-10-07T13:55:02.323Z,1.45
2022-10-07T13:57:31.589Z,2.03
2022-10-07T13:59:59.982Z,1.65
2022-10-07T14:02:27.021Z,1.45
2022-10-07T14:05:00.761Z,1.52
2022-10-07T14:07:29.213Z,1.50
2022-10-07T14:09:58.829Z,1.67
2022-10-07T14:12:34.160Z,1.48
2022-10-07T14:15:06.852Z,1.73
2022-10-07T14:20:19.138Z,1.50
2022-10-07T14:22:50.452Z,1.70
2022-10-07T14:25:29.501Z,1.58
2022-10-07T14:28:17.997Z,2.00
2022-10-07T14:31:29.188Z,1.77
2022-10-07T14:34:33.470Z,1.80
2022-10-07T14:37:04.630Z,1.60
2022-10-07T14:39:38.650Z,1.52
2022-10-07T14:42:10.286Z,1.70
2022-10-07T14:44:37.269Z,1.83
2022-10-07T14:47:09.374Z,2.13
2022-10-07T14:49:36.674Z,1.80
2022-10-07T14:52:06.262Z,1.70
2022-10-07T14:54:34.865Z,1.98
2022-10-07T14:57:01.559Z,1.95
2022-10-07T14:59:28.058Z,2.05
2022-10-07T15:01:54.583Z,1.85
2022-10-07T15:04:21.303Z,1.58
2022-10-07T15:06:50.848Z,1.98
2022-10-07T15:09:18.424Z,1.52
2022-10-07T15:11:44.968Z,1.70
2022-10-07T15:14:12.053Z,1.80
2022-10-07T15:16:39.005Z,1.98
2022-10-07T15:19:05.623Z,1.95
2022-10-07T15:21:32.239Z,1.95
2022-10-07T15:23:58.808Z,2.38
2022-10-07T15:26:25.414Z,2.38
2022-10-07T15:28:56.998Z,2.50
2022-10-07T15:31:32.743Z,2.65
2022-10-07T15:33:59.335Z,1.75
2022-10-07T15:36:29.131Z,1.67
2022-10-07T15:38:58.980Z,2.33
2022-10-07T15:41:40.214Z,1.58
2022-10-07T15:44:18.201Z,2.10
2022-10-07T15:46:47.737Z,1.83
2022-10-07T15:49:17.119Z,1.58
2022-10-07T15:51:46.717Z,2.25
2022-10-07T15:54:13.581Z,1.77
2022-10-07T15:56:42.218Z,1.77
2022-10-07T15:59:09.394Z,1.88
2022-10-07T16:01:36.037Z,1.65
2022-10-07T16:04:03.473Z,1.95
2022-10-07T16:06:35.748Z,1.90
2022-10-07T16:09:03.268Z,1.70
2022-10-07T16:11:36.283Z,1.85
2022-10-07T16:16:31.474Z,1.60
2022-10-07T16:18:59.185Z,1.70
2022-10-07T16:21:27.914Z,1.65
2022-10-07T16:24:15.695Z,1.95
2022-10-07T16:26:42.960Z,1.83
2022-10-07T16:29:33.696Z,1.77
2022-10-07T16:32:00.524Z,2.15
2022-10-07T16:34:28.711Z,1.92
2022-10-07T16:36:56.403Z,2.05
2022-10-07T16:39:23.316Z,1.95
2022-10-07T16:41:54.094Z,2.20
2022-10-07T16:44:21.436Z,1.73
2022-10-07T16:46:48.541Z,2.30
2022-10-07T16:49:17.381Z,1.90
2022-10-07T16:51:44.806Z,2.15
2022-10-07T16:54:15.646Z,2.58
2022-10-07T16:56:48.124Z,2.78
2022-10-07T16:59:22.320Z,2.63
2022-10-07T17:01:57.153Z,2.95
2022-10-07T17:04:24.986Z,2.72
2022-10-07T17:06:51.910Z,2.45
2022-10-07T17:09:18.753Z,2.63
2022-10-07T17:11:46.427Z,2.85
2022-10-07T17:14:18.771Z,2.72
2022-10-07T17:16:47.532Z,2.97
2022-10-07T17:19:20.063Z,3.08
2022-10-07T17:21:48.143Z,3.03
2022-10-07T17:24:16.280Z,2.63
2022-10-07T17:26:43.844Z,2.70
2022-10-07T17:29:13.059Z,2.60
2022-10-07T17:31:42.666Z,2.47
2022-10-07T17:34:11.763Z,2.95
2022-10-07T17:36:39.407Z,3.03
2022-10-07T17:39:06.817Z,3.78
2022-10-07T17:41:35.834Z,2.90
2022-10-07T17:44:04.853Z,2.67
2022-10-07T17:46:36.550Z,2.83
2022-10-07T17:49:03.773Z,3.05
2022-10-07T17:51:32.522Z,2.65
2022-10-07T17:54:00.828Z,2.70
2022-10-07T17:56:29.457Z,2.60
2022-10-07T17:58:56.129Z,3.00
2022-10-07T18:01:27.265Z,2.58
2022-10-07T18:04:01.066Z,2.30
2022-10-07T18:06:30.405Z,2.78
2022-10-07T18:09:02.249Z,2.92
2022-10-07T18:11:48.869Z,2.75
2022-10-07T18:14:33.984Z,2.97
2022-10-07T18:17:00.680Z,2.63
2022-10-07T18:19:29.396Z,2.30
2022-10-07T18:21:56.600Z,3.15
2022-10-07T18:24:28.711Z,2.83
2022-10-07T18:26:58.455Z,3.38
2022-10-07T18:29:29.815Z,2.80
2022-10-07T18:31:56.496Z,2.75
2022-10-07T18:34:23.841Z,2.97
2022-10-07T18:36:55.249Z,3.08
2022-10-07T18:39:23.062Z,2.58
2022-10-07T18:41:49.647Z,3.10
2022-10-07T18:44:16.255Z,2.85
2022-10-07T18:46:42.772Z,1.95
2022-10-07T18:49:09.569Z,2.50
2022-10-07T18:51:36.135Z,2.70
2022-10-07T18:54:02.653Z,2.80
2022-10-07T18:56:29.178Z,3.30
2022-10-07T18:58:55.783Z,2.58
2022-10-07T19:01:25.464Z,2.80
2022-10-07T19:04:06.094Z,2.92
2022-10-07T19:06:35.682Z,2.80
2022-10-07T19:09:06.029Z,2.22
2022-10-07T19:11:32.661Z,2.97
2022-10-07T19:14:00.223Z,2.90
2022-10-07T19:16:41.884Z,2.92
2022-10-07T19:19:22.571Z,2.33
2022-10-07T19:21:51.724Z,2.83
2022-10-07T19:24:18.950Z,2.78
2022-10-07T19:26:48.812Z,2.75
2022-10-07T19:29:16.667Z,2.80
2022-10-07T19:31:45.587Z,3.15
2022-10-07T19:34:15.598Z,2.83
2022-10-07T19:36:46.810Z,3.45
2022-10-07T19:39:19.447Z,2.97
2022-10-07T19:41:46.484Z,2.90
2022-10-07T19:44:13.644Z,2.75
2022-10-07T19:46:40.321Z,2.90
2022-10-07T19:49:09.289Z,2.97
2022-10-07T19:51:37.282Z,3.25
2022-10-07T19:54:10.721Z,3.13
2022-10-07T19:56:38.565Z,2.42
2022-10-07T19:59:08.050Z,2.65
2022-10-07T20:01:37.624Z,2.70
2022-10-07T20:04:06.754Z,2.63
2022-10-07T20:06:36.523Z,2.88
2022-10-07T20:09:05.619Z,2.13
2022-10-07T20:11:32.784Z,2.97
2022-10-07T20:13:59.992Z,3.05
2022-10-07T20:16:27.522Z,2.50
2022-10-07T20:19:05.644Z,2.90
2022-10-07T20:21:36.621Z,2.67
2022-10-07T20:24:05.519Z,2.80
2022-10-07T20:26:38.337Z,2.92
2022-10-07T20:29:07.089Z,3.25
2022-10-07T20:31:36.190Z,2.88
2022-10-07T20:34:03.461Z,3.40
2022-10-07T20:36:35.721Z,2.60
2022-10-07T20:39:36.622Z,3.70
2022-10-07T20:42:24.373Z,2.58
2022-10-07T20:44:52.196Z,3.53
2022-10-07T20:47:20.297Z,3.28
2022-10-07T20:49:48.591Z,3.75
2022-10-07T20:52:17.364Z,3.08
2022-10-07T20:54:44.856Z,2.92
2022-10-07T20:57:13.032Z,3.22
2022-10-07T20:59:42.138Z,3.00
2022-10-07T21:02:14.288Z,3.10
2022-10-07T21:04:41.113Z,3.87
2022-10-07T21:07:08.391Z,3.75
2022-10-07T21:09:37.868Z,2.90
2022-10-07T21:12:07.509Z,3.20
2022-10-07T21:14:35.281Z,2.78
2022-10-07T21:17:02.238Z,3.38
2022-10-07T21:19:31.844Z,2.92
2022-10-07T21:21:58.921Z,3.42
2022-10-07T21:24:25.480Z,3.53
2022-10-07T21:26:51.983Z,2.78
2022-10-07T21:29:18.999Z,3.75
2022-10-07T21:31:45.628Z,3.25
2022-10-07T21:34:12.164Z,3.28
2022-10-07T21:36:41.247Z,3.13
2022-10-07T21:39:07.920Z,3.55
2022-10-07T21:41:37.487Z,2.95
2022-10-07T21:44:05.999Z,3.22
2022-10-07T21:46:33.858Z,2.90
2022-10-07T21:49:00.820Z,2.67
2022-10-07T21:51:27.436Z,3.60
2022-10-07T21:53:55.487Z,3.53
2022-10-07T21:56:22.007Z,2.67
2022-10-07T21:58:49.535Z,2.92
2022-10-07T22:01:18.731Z,3.55
2022-10-07T22:03:46.168Z,3.17
2022-10-07T22:06:16.047Z,3.05
2022-10-07T22:08:44.817Z,3.25
2022-10-07T22:11:17.784Z,3.50
2022-10-07T22:13:46.837Z,2.90
2022-10-07T22:16:15.772Z,3.40
2022-10-07T22:18:44.536Z,3.80
2022-10-07T22:21:12.884Z,3.50
2022-10-07T22:23:43.248Z,3.45
2022-10-07T22:26:15.041Z,3.28
2022-10-07T22:28:41.665Z,3.67
2022-10-07T22:31:09.982Z,3.15
2022-10-07T22:33:38.495Z,2.92
2022-10-07T22:36:06.622Z,3.28
2022-10-07T22:38:33.346Z,3.50
2022-10-07T22:41:04.114Z,2.67
2022-10-07T22:43:30.677Z,3.55
2022-10-07T22:45:58.731Z,3.10
2022-10-07T22:48:26.156Z,3.28
2022-10-07T22:50:53.283Z,3.13
2022-10-07T22:53:20.764Z,3.15
2022-10-07T22:55:47.291Z,3.22
2022-10-07T22:58:13.918Z,3.20
2022-10-07T23:00:40.429Z,3.78
2022-10-07T23:03:07.150Z,2.95
2022-10-07T23:05:39.830Z,3.15
2022-10-07T23:08:06.390Z,3.42
2022-10-07T23:10:32.901Z,3.50
2022-10-07T23:13:00.749Z,3.05
2022-10-07T23:15:27.285Z,3.00
2022-10-07T23:17:53.794Z,2.75
2022-10-07T23:20:20.385Z,3.47
2022-10-07T23:22:47.198Z,3.47
2022-10-07T23:25:13.963Z,3.28
2022-10-07T23:27:40.555Z,3.53
2022-10-07T23:30:08.026Z,3.50
2022-10-07T23:32:34.543Z,3.53
2022-10-07T23:35:01.041Z,3.95
2022-10-07T23:37:27.533Z,3.40
2022-10-07T23:39:54.077Z,3.38
2022-10-07T23:42:20.687Z,3.75
2022-10-07T23:44:47.202Z,3.78
2022-10-07T23:47:13.728Z,3.55
2022-10-07T23:49:40.554Z,3.47
2022-10-07T23:52:07.175Z,3.00
2022-10-07T23:54:33.724Z,3.53
2022-10-07T23:57:00.242Z,3.15
2022-10-07T23:59:26.759Z,3.10
